createdAt,value
2019-02-28T00:01:05.417Z,27.30
2019-02-28T00:03:32.556Z,20.50
2019-02-28T00:05:59.533Z,25.30
2019-02-28T00:08:26.630Z,27.57
2019-02-28T00:10:53.483Z,25.40
2019-02-28T00:13:21.742Z,20.77
2019-02-28T00:15:49.366Z,22.67
2019-02-28T00:18:16.713Z,26.17
2019-02-28T00:20:43.612Z,19.77
2019-02-28T00:23:10.395Z,26.13
2019-02-28T00:25:38.052Z,23.33
2019-02-28T00:28:05.657Z,22.30
2019-02-28T00:30:32.826Z,22.60
2019-02-28T00:32:59.968Z,27.43
2019-02-28T00:35:27.028Z,22.17
2019-02-28T00:37:56.638Z,20.80
2019-02-28T00:40:22.598Z,22.67
2019-02-28T00:42:50.829Z,21.23
2019-02-28T00:45:18.438Z,18.87
2019-02-28T00:47:47.566Z,29.50
2019-02-28T00:50:14.179Z,24.07
2019-02-28T00:52:41.088Z,23.30
2019-02-28T00:55:08.117Z,24.77
2019-02-28T00:57:35.081Z,23.53
2019-02-28T01:00:05.468Z,17.80
2019-02-28T01:02:31.956Z,21.23
2019-02-28T01:05:01.401Z,21.13
2019-02-28T01:07:27.941Z,19.70
2019-02-28T01:09:54.980Z,21.67
2019-02-28T01:12:21.811Z,19.30
2019-02-28T01:14:48.955Z,19.13
2019-02-28T01:17:15.840Z,19.57
2019-02-28T01:19:42.732Z,19.80
2019-02-28T01:22:09.744Z,18.30
2019-02-28T01:24:36.685Z,21.73
2019-02-28T01:27:03.493Z,19.23
2019-02-28T01:29:32.921Z,19.83
2019-02-28T01:32:00.220Z,27.43
2019-02-28T01:34:29.121Z,15.00
2019-02-28T01:36:56.025Z,19.10
2019-02-28T01:39:22.835Z,17.00
2019-02-28T01:41:49.623Z,18.23
2019-02-28T01:44:16.575Z,19.97
2019-02-28T01:46:43.636Z,15.23
2019-02-28T01:49:10.428Z,15.77
2019-02-28T01:51:37.454Z,16.40
2019-02-28T01:54:04.305Z,15.30
2019-02-28T01:56:31.213Z,16.90
2019-02-28T01:58:58.099Z,16.07
2019-02-28T02:01:25.353Z,16.13
2019-02-28T02:03:52.593Z,16.20
2019-02-28T02:06:22.607Z,17.30
2019-02-28T02:08:49.086Z,17.47
2019-02-28T02:11:15.867Z,15.23
2019-02-28T02:13:42.979Z,16.37
2019-02-28T02:16:12.128Z,15.80
2019-02-28T02:18:40.311Z,16.13
2019-02-28T02:21:07.608Z,18.30
2019-02-28T02:23:34.379Z,16.10
2019-02-28T02:26:01.584Z,15.40
2019-02-28T02:28:28.589Z,17.50
2019-02-28T02:30:55.857Z,23.47
2019-02-28T02:33:22.866Z,19.00
2019-02-28T02:35:50.031Z,17.63
2019-02-28T02:38:16.957Z,19.30
2019-02-28T02:40:43.821Z,21.03
2019-02-28T02:43:10.663Z,16.57
2019-02-28T02:45:41.512Z,15.10
2019-02-28T02:48:06.848Z,17.70
2019-02-28T02:50:35.821Z,19.13
2019-02-28T02:53:05.546Z,18.60
2019-02-28T02:55:31.726Z,19.67
2019-02-28T02:57:58.631Z,19.30
2019-02-28T03:00:25.609Z,21.50
2019-02-28T03:02:52.387Z,23.50
2019-02-28T03:05:19.252Z,21.43
2019-02-28T03:07:46.166Z,21.17
2019-02-28T03:10:17.227Z,24.47
2019-02-28T03:12:42.365Z,19.10
2019-02-28T03:15:09.731Z,20.17
2019-02-28T03:17:36.591Z,21.07
2019-02-28T03:20:07.416Z,21.53
2019-02-28T03:22:32.995Z,20.10
2019-02-28T03:24:59.898Z,22.20
2019-02-28T03:27:26.924Z,26.60
2019-02-28T03:29:53.907Z,24.53
2019-02-28T03:32:20.834Z,22.23
2019-02-28T03:34:55.452Z,24.37
2019-02-28T03:37:16.551Z,25.13
2019-02-28T03:39:43.371Z,22.30
2019-02-28T03:42:10.479Z,22.50
2019-02-28T03:44:37.256Z,22.60
2019-02-28T03:47:04.378Z,22.23
2019-02-28T03:49:31.193Z,25.17
2019-02-28T03:52:05.370Z,21.50
2019-02-28T03:54:28.767Z,21.30
2019-02-28T03:56:55.779Z,22.00
2019-02-28T03:59:22.731Z,24.90
2019-02-28T04:01:49.500Z,25.80
2019-02-28T04:04:16.531Z,28.77
2019-02-28T04:06:43.838Z,23.50
2019-02-28T04:09:10.671Z,26.20
2019-02-28T04:11:37.509Z,30.20
2019-02-28T04:14:04.324Z,24.83
2019-02-28T04:16:31.193Z,25.40
2019-02-28T04:18:58.025Z,28.87
2019-02-28T04:21:25.082Z,28.17
2019-02-28T04:23:52.256Z,28.43
2019-02-28T04:26:19.638Z,23.47
2019-02-28T04:28:53.206Z,31.10
2019-02-28T04:31:19.147Z,28.30
2019-02-28T04:33:43.969Z,29.93
2019-02-28T04:36:10.798Z,36.33
2019-02-28T04:38:37.580Z,32.53
2019-02-28T04:41:04.754Z,30.70
2019-02-28T04:43:31.523Z,32.90
2019-02-28T04:45:58.520Z,35.33
2019-02-28T04:48:25.545Z,32.10
2019-02-28T04:50:52.400Z,29.10
2019-02-28T04:53:20.088Z,33.93
2019-02-28T04:55:47.148Z,35.23
2019-02-28T04:58:14.300Z,32.83
2019-02-28T05:00:41.232Z,34.83
2019-02-28T05:03:08.252Z,32.63
2019-02-28T05:05:35.064Z,36.07
2019-02-28T05:08:05.748Z,31.30
2019-02-28T05:10:30.759Z,32.33
2019-02-28T05:12:57.571Z,41.23
2019-02-28T05:15:24.523Z,36.37
2019-02-28T05:17:53.105Z,44.73
2019-02-28T05:20:20.112Z,38.17
2019-02-28T05:22:46.918Z,39.50
2019-02-28T05:25:17.424Z,40.43
2019-02-28T05:27:42.400Z,42.57
2019-02-28T05:30:10.090Z,40.03
2019-02-28T05:32:36.903Z,39.43
2019-02-28T05:35:03.875Z,42.10
2019-02-28T05:37:30.681Z,39.93
2019-02-28T05:39:57.585Z,33.70
2019-02-28T05:42:24.439Z,37.90
2019-02-28T05:44:51.279Z,43.33
2019-02-28T05:47:18.124Z,37.77
2019-02-28T05:49:44.931Z,37.90
2019-02-28T05:52:11.841Z,39.80
2019-02-28T05:54:38.900Z,39.23
2019-02-28T05:57:08.253Z,43.53
2019-02-28T05:59:34.426Z,40.30
2019-02-28T06:02:01.354Z,47.13
2019-02-28T06:04:28.213Z,43.20
2019-02-28T06:06:55.615Z,46.23
2019-02-28T06:09:22.827Z,50.37
2019-02-28T06:11:49.633Z,43.27
2019-02-28T06:14:16.503Z,47.60
2019-02-28T06:16:46.885Z,45.87
2019-02-28T06:19:12.576Z,50.83
2019-02-28T06:21:39.634Z,48.37
2019-02-28T06:24:06.800Z,53.80
2019-02-28T06:26:33.809Z,49.80
2019-02-28T06:29:04.748Z,47.67
2019-02-28T06:31:29.421Z,46.90
2019-02-28T06:33:56.276Z,51.13
2019-02-28T06:36:25.691Z,50.60
2019-02-28T06:38:54.547Z,54.10
2019-02-28T06:41:20.908Z,56.73
2019-02-28T06:43:50.230Z,54.43
2019-02-28T06:46:16.896Z,52.00
2019-02-28T06:48:43.776Z,56.03
2019-02-28T06:51:10.905Z,53.03
2019-02-28T06:53:39.726Z,54.60
2019-02-28T06:56:06.593Z,59.20
2019-02-28T06:58:33.962Z,55.20
2019-02-28T07:01:00.983Z,53.13
2019-02-28T07:03:27.774Z,60.17
2019-02-28T07:05:57.556Z,54.60
2019-02-28T07:08:24.712Z,60.17
2019-02-28T07:10:51.954Z,57.97
2019-02-28T07:13:18.739Z,56.33
2019-02-28T07:15:45.540Z,59.33
2019-02-28T07:18:12.348Z,59.40
2019-02-28T07:20:39.123Z,60.57
2019-02-28T07:23:05.972Z,63.20
2019-02-28T07:25:33.164Z,66.13
2019-02-28T07:28:01.570Z,62.43
2019-02-28T07:30:29.143Z,73.93
2019-02-28T07:32:55.963Z,57.67
2019-02-28T07:35:22.875Z,64.80
2019-02-28T07:37:53.425Z,62.10
2019-02-28T07:40:18.520Z,59.97
2019-02-28T07:42:45.292Z,63.63
2019-02-28T07:45:12.667Z,64.63
2019-02-28T07:47:39.693Z,67.20
2019-02-28T07:50:07.642Z,64.20
2019-02-28T07:52:35.671Z,71.60
2019-02-28T07:55:03.179Z,65.67
2019-02-28T07:57:30.066Z,65.63
2019-02-28T07:59:57.001Z,66.60
2019-02-28T08:02:23.780Z,69.47
2019-02-28T08:04:54.279Z,66.50
2019-02-28T08:07:19.550Z,65.70
2019-02-28T08:09:46.304Z,71.80
2019-02-28T08:12:13.107Z,66.20
2019-02-28T08:14:40.142Z,72.43
2019-02-28T08:17:09.043Z,81.70
2019-02-28T08:19:35.658Z,71.23
2019-02-28T08:22:02.741Z,74.33
2019-02-28T08:24:29.580Z,77.43
2019-02-28T08:26:56.401Z,84.17
2019-02-28T08:29:23.235Z,77.27
2019-02-28T08:31:50.226Z,80.00
2019-02-28T08:34:17.038Z,84.13
2019-02-28T08:36:46.950Z,75.90
2019-02-28T08:39:16.297Z,78.90
2019-02-28T08:41:43.345Z,72.67
2019-02-28T08:44:10.361Z,78.43
2019-02-28T08:46:37.185Z,80.00
2019-02-28T08:49:07.244Z,77.90
2019-02-28T08:51:33.690Z,74.80
2019-02-28T08:54:00.464Z,81.43
2019-02-28T08:56:27.331Z,81.93
2019-02-28T08:58:54.161Z,74.93
2019-02-28T09:01:21.396Z,81.33
2019-02-28T09:03:50.147Z,80.93
2019-02-28T09:06:17.272Z,81.37
2019-02-28T09:08:44.073Z,80.00
2019-02-28T09:11:10.913Z,79.27
2019-02-28T09:13:39.959Z,80.13
2019-02-28T09:16:06.606Z,81.23
2019-02-28T09:18:33.404Z,77.70
2019-02-28T09:21:00.236Z,90.87
2019-02-28T09:23:27.258Z,79.90
2019-02-28T09:25:56.822Z,76.60
2019-02-28T09:28:23.197Z,85.13
2019-02-28T09:30:50.256Z,92.23
2019-02-28T09:33:19.272Z,78.10
2019-02-28T09:35:46.538Z,85.37
2019-02-28T09:38:13.918Z,82.23
2019-02-28T09:40:41.331Z,89.20
2019-02-28T09:43:08.381Z,77.50
2019-02-28T09:45:35.195Z,78.80
2019-02-28T09:48:02.426Z,84.73
2019-02-28T09:50:29.498Z,76.70
2019-02-28T09:52:56.603Z,82.47
2019-02-28T09:55:23.436Z,79.23
2019-02-28T09:57:54.670Z,82.67
2019-02-28T10:00:19.465Z,84.50
2019-02-28T10:02:46.448Z,89.60
2019-02-28T10:05:13.296Z,77.10
2019-02-28T10:07:40.083Z,78.43
2019-02-28T10:10:08.356Z,74.90
2019-02-28T10:12:35.201Z,83.83
2019-02-28T10:15:07.013Z,76.97
2019-02-28T10:17:30.885Z,106.10
2019-02-28T10:19:57.768Z,85.30
2019-02-28T10:22:24.673Z,74.57
2019-02-28T10:24:51.483Z,75.83
2019-02-28T10:27:18.255Z,81.67
2019-02-28T10:29:45.072Z,86.03
2019-02-28T10:32:11.871Z,70.77
2019-02-28T10:34:38.711Z,79.27
2019-02-28T10:37:05.479Z,73.50
2019-02-28T10:39:32.262Z,69.57
2019-02-28T10:42:01.534Z,86.73
2019-02-28T10:44:30.699Z,87.57
2019-02-28T10:46:56.784Z,83.90
2019-02-28T10:49:24.122Z,71.73
2019-02-28T10:51:51.812Z,79.87
2019-02-28T10:54:18.599Z,83.17
2019-02-28T10:56:45.896Z,81.50
2019-02-28T10:59:13.065Z,70.13
2019-02-28T11:01:42.009Z,72.97
2019-02-28T11:04:08.928Z,88.03
2019-02-28T11:06:36.991Z,75.03
2019-02-28T11:09:04.301Z,80.23
2019-02-28T11:11:31.143Z,82.97
2019-02-28T11:13:59.009Z,70.23
2019-02-28T11:16:25.908Z,74.63
2019-02-28T11:18:52.848Z,77.53
2019-02-28T11:21:20.491Z,75.67
2019-02-28T11:23:50.140Z,73.30
2019-02-28T11:26:16.175Z,74.40
2019-02-28T11:28:43.355Z,80.73
2019-02-28T11:31:11.198Z,76.17
2019-02-28T11:33:39.655Z,71.07
2019-02-28T11:36:07.528Z,74.60
2019-02-28T11:38:34.654Z,89.93
2019-02-28T11:41:01.682Z,77.53
2019-02-28T11:43:28.619Z,70.87
2019-02-28T11:45:56.460Z,73.50
2019-02-28T11:48:24.460Z,72.27
2019-02-28T11:50:51.464Z,77.63
2019-02-28T11:53:19.173Z,68.03
2019-02-28T11:55:46.317Z,69.00
2019-02-28T11:58:16.295Z,69.23
2019-02-28T12:00:42.215Z,75.30
2019-02-28T12:03:09.166Z,69.30
2019-02-28T12:05:36.142Z,69.83
2019-02-28T12:08:06.364Z,74.70
2019-02-28T12:10:32.043Z,82.10
2019-02-28T12:12:58.946Z,73.00
2019-02-28T12:15:26.306Z,77.20
2019-02-28T12:17:53.340Z,78.43
2019-02-28T12:20:25.876Z,79.17
2019-02-28T12:22:50.016Z,78.03
2019-02-28T12:25:17.461Z,73.97
2019-02-28T12:27:44.302Z,72.30
2019-02-28T12:30:13.041Z,72.57
2019-02-28T12:32:40.326Z,77.10
2019-02-28T12:35:08.899Z,78.90
2019-02-28T12:37:35.741Z,70.07
2019-02-28T12:40:03.130Z,73.80
2019-02-28T12:42:31.681Z,72.63
2019-02-28T12:44:58.777Z,66.43
2019-02-28T12:47:29.399Z,79.47
2019-02-28T12:49:57.278Z,79.60
2019-02-28T12:52:25.234Z,86.83
2019-02-28T12:54:52.080Z,69.20
2019-02-28T12:57:19.259Z,79.23
2019-02-28T12:59:47.808Z,68.33
2019-02-28T13:02:15.073Z,78.17
2019-02-28T13:04:42.024Z,73.50
2019-02-28T13:07:08.834Z,79.50
2019-02-28T13:09:36.225Z,65.80
2019-02-28T13:12:03.087Z,72.90
2019-02-28T13:14:30.641Z,79.87
2019-02-28T13:16:57.738Z,74.60
2019-02-28T13:19:25.360Z,82.17
2019-02-28T13:21:52.341Z,74.50
2019-02-28T13:24:19.716Z,78.63
2019-02-28T13:26:47.165Z,80.07
2019-02-28T13:29:14.829Z,80.70
2019-02-28T13:31:42.011Z,83.90
2019-02-28T13:34:08.829Z,80.80
2019-02-28T13:36:35.756Z,85.17
2019-02-28T13:39:04.031Z,79.50
2019-02-28T13:41:31.080Z,79.20
2019-02-28T13:43:59.446Z,83.53
2019-02-28T13:46:32.347Z,78.90
2019-02-28T13:48:55.747Z,90.93
2019-02-28T13:51:22.675Z,81.90
2019-02-28T13:53:49.494Z,80.03
2019-02-28T13:56:17.997Z,77.00
2019-02-28T13:58:45.089Z,81.10
2019-02-28T14:01:12.323Z,76.47
2019-02-28T14:03:42.335Z,96.60
2019-02-28T14:06:07.874Z,83.80
2019-02-28T14:08:34.675Z,81.37
2019-02-28T14:11:01.492Z,84.63
2019-02-28T14:13:30.009Z,77.10
2019-02-28T14:15:57.012Z,77.50
2019-02-28T14:18:24.168Z,83.20
2019-02-28T14:20:50.969Z,89.03
2019-02-28T14:23:20.689Z,88.83
2019-02-28T14:25:46.460Z,82.13
2019-02-28T14:28:13.284Z,82.50
2019-02-28T14:30:40.082Z,76.40
2019-02-28T14:33:07.004Z,84.90
2019-02-28T14:35:35.694Z,76.37
2019-02-28T14:38:03.285Z,71.40
2019-02-28T14:40:30.073Z,90.13
2019-02-28T14:42:56.896Z,80.97
2019-02-28T14:45:24.072Z,85.13
2019-02-28T14:47:57.278Z,79.07
2019-02-28T14:50:22.998Z,76.83
2019-02-28T14:52:50.381Z,78.23
2019-02-28T14:55:17.375Z,72.30
2019-02-28T14:57:44.454Z,77.17
2019-02-28T15:00:12.678Z,77.57
2019-02-28T15:02:39.966Z,79.23
2019-02-28T15:05:08.734Z,87.97
2019-02-28T15:07:38.703Z,87.67
2019-02-28T15:10:05.636Z,79.07
2019-02-28T15:12:32.773Z,82.33
2019-02-28T15:14:59.958Z,75.37
2019-02-28T15:17:27.337Z,84.50
2019-02-28T15:19:57.046Z,94.60
2019-02-28T15:22:24.517Z,87.23
2019-02-28T15:24:51.938Z,82.77
2019-02-28T15:27:19.136Z,81.80
2019-02-28T15:29:46.217Z,90.23
2019-02-28T15:32:14.278Z,93.63
2019-02-28T15:34:42.141Z,96.10
2019-02-28T15:37:09.251Z,87.57
2019-02-28T15:39:36.349Z,85.77
2019-02-28T15:42:05.528Z,86.77
2019-02-28T15:44:32.156Z,77.77
2019-02-28T15:46:58.968Z,89.67
2019-02-28T15:49:25.889Z,87.43
2019-02-28T15:51:53.212Z,77.73
2019-02-28T15:54:21.773Z,78.83
2019-02-28T15:56:51.800Z,77.57
2019-02-28T15:59:18.089Z,69.27
2019-02-28T16:01:45.039Z,74.10
2019-02-28T16:04:12.048Z,74.23
2019-02-28T16:06:39.145Z,83.43
2019-02-28T16:09:08.486Z,76.93
2019-02-28T16:11:37.419Z,87.43
2019-02-28T16:14:04.236Z,79.27
2019-02-28T16:16:31.454Z,89.23
2019-02-28T16:18:58.275Z,89.07
2019-02-28T16:21:25.394Z,98.13
2019-02-28T16:23:52.616Z,97.53
2019-02-28T16:26:21.813Z,96.73
2019-02-28T16:28:48.789Z,107.27
2019-02-28T16:31:15.993Z,95.60
2019-02-28T16:33:43.601Z,92.07
2019-02-28T16:36:10.407Z,100.67
2019-02-28T16:38:37.264Z,101.83
2019-02-28T16:41:04.182Z,97.97
2019-02-28T16:43:30.985Z,94.40
2019-02-28T16:45:57.928Z,108.47
2019-02-28T16:48:25.029Z,105.73
2019-02-28T16:50:53.684Z,110.13
2019-02-28T16:53:20.828Z,113.03
2019-02-28T16:55:47.641Z,107.13
2019-02-28T16:58:14.592Z,116.93
2019-02-28T17:00:42.405Z,119.37
2019-02-28T17:03:10.763Z,110.57
2019-02-28T17:05:37.714Z,114.77
2019-02-28T17:08:06.692Z,126.67
2019-02-28T17:10:34.902Z,124.47
2019-02-28T17:13:09.669Z,116.30
2019-02-28T17:15:55.412Z,117.53
2019-02-28T17:18:24.299Z,117.83
2019-02-28T17:20:51.274Z,110.23
2019-02-28T17:23:18.743Z,112.37
2019-02-28T17:25:46.125Z,111.27
2019-02-28T17:28:30.643Z,112.23
2019-02-28T17:31:16.063Z,113.83
2019-02-28T17:33:46.320Z,104.53
2019-02-28T17:36:12.839Z,125.17
2019-02-28T17:38:41.008Z,127.27
2019-02-28T17:41:08.119Z,121.37
2019-02-28T17:43:36.752Z,121.77
2019-02-28T17:46:03.696Z,122.60
2019-02-28T17:48:48.622Z,122.20
2019-02-28T17:51:33.997Z,116.23
2019-02-28T17:54:13.313Z,124.80
2019-02-28T17:56:59.079Z,116.50
2019-02-28T17:59:51.742Z,118.57
2019-02-28T18:02:27.123Z,126.40
2019-02-28T18:05:13.224Z,113.00
2019-02-28T18:08:00.556Z,114.87
2019-02-28T18:10:50.475Z,112.97
2019-02-28T18:13:43.270Z,107.13
2019-02-28T18:16:17.919Z,110.77
2019-02-28T18:19:04.736Z,112.77
2019-02-28T18:21:41.067Z,120.67
2019-02-28T18:24:34.661Z,114.43
2019-02-28T18:27:24.079Z,109.27
2019-02-28T18:30:05.416Z,113.23
2019-02-28T18:32:33.284Z,115.10
2019-02-28T18:35:01.146Z,129.63
2019-02-28T18:37:28.228Z,110.03
2019-02-28T18:39:55.119Z,131.07
2019-02-28T18:42:21.919Z,128.80
2019-02-28T18:44:48.754Z,110.90
2019-02-28T18:47:23.518Z,129.27
2019-02-28T18:49:50.520Z,125.40
2019-02-28T18:52:18.049Z,122.67
2019-02-28T18:54:45.341Z,116.60
2019-02-28T18:57:13.185Z,123.60
2019-02-28T18:59:40.351Z,107.63
2019-02-28T19:02:07.298Z,118.07
2019-02-28T19:04:34.242Z,133.10
2019-02-28T19:07:01.184Z,130.63
2019-02-28T19:09:28.224Z,121.63
2019-02-28T19:11:55.508Z,130.23
2019-02-28T19:14:22.428Z,116.40
2019-02-28T19:16:49.305Z,129.53
2019-02-28T19:19:16.315Z,133.20
2019-02-28T19:21:43.113Z,123.53
2019-02-28T19:24:09.961Z,134.00
2019-02-28T19:26:36.859Z,127.30
2019-02-28T19:29:04.035Z,135.53
2019-02-28T19:31:31.100Z,132.80
2019-02-28T19:33:58.016Z,133.00
2019-02-28T19:36:24.935Z,126.50
2019-02-28T19:38:51.909Z,127.40
2019-02-28T19:41:18.987Z,123.13
2019-02-28T19:43:45.801Z,129.90
2019-02-28T19:46:12.697Z,136.83
2019-02-28T19:48:39.599Z,135.40
2019-02-28T19:51:06.845Z,138.40
2019-02-28T19:53:33.752Z,119.47
2019-02-28T19:56:03.389Z,128.93
2019-02-28T19:58:30.389Z,141.90
2019-02-28T20:00:57.293Z,136.87
2019-02-28T20:03:24.360Z,121.73
2019-02-28T20:05:51.680Z,129.17
2019-02-28T20:08:18.656Z,129.60
2019-02-28T20:10:47.091Z,144.57
2019-02-28T20:13:14.161Z,140.90
2019-02-28T20:15:41.057Z,146.30
2019-02-28T20:18:08.431Z,140.23
2019-02-28T20:20:35.222Z,136.07
2019-02-28T20:23:02.224Z,151.57
2019-02-28T20:25:29.052Z,130.60
2019-02-28T20:27:56.022Z,143.53
2019-02-28T20:30:24.214Z,121.03
2019-02-28T20:32:51.657Z,150.77
2019-02-28T20:35:26.181Z,139.23
2019-02-28T20:37:47.438Z,127.87
2019-02-28T20:40:14.443Z,122.80
2019-02-28T20:42:41.388Z,125.47
2019-02-28T20:45:08.529Z,131.23
2019-02-28T20:47:35.374Z,129.57
2019-02-28T20:50:03.400Z,130.97
2019-02-28T20:52:30.330Z,123.80
2019-02-28T20:54:57.137Z,127.27
2019-02-28T20:57:23.931Z,121.97
2019-02-28T20:59:50.804Z,122.60
2019-02-28T21:02:18.833Z,116.70
2019-02-28T21:04:45.910Z,116.10
2019-02-28T21:07:12.960Z,106.97
2019-02-28T21:09:44.998Z,112.17
2019-02-28T21:12:08.537Z,107.63
2019-02-28T21:14:35.370Z,105.03
2019-02-28T21:17:02.295Z,113.80
2019-02-28T21:19:29.155Z,113.63
2019-02-28T21:21:56.075Z,106.33
2019-02-28T21:24:23.225Z,104.90
2019-02-28T21:26:50.065Z,97.87
2019-02-28T21:29:16.913Z,104.17
2019-02-28T21:31:43.789Z,105.37
2019-02-28T21:34:10.976Z,99.13
2019-02-28T21:36:37.947Z,105.53
2019-02-28T21:39:05.530Z,111.70
2019-02-28T21:41:32.426Z,106.93
2019-02-28T21:43:59.298Z,92.47
2019-02-28T21:46:26.193Z,98.13
2019-02-28T21:48:53.105Z,92.93
2019-02-28T21:51:19.919Z,98.70
2019-02-28T21:53:46.784Z,92.03
2019-02-28T21:56:13.593Z,87.17
2019-02-28T21:58:40.493Z,87.90
2019-02-28T22:01:07.339Z,87.50
2019-02-28T22:03:34.140Z,90.43
2019-02-28T22:06:01.019Z,90.83
2019-02-28T22:08:27.882Z,94.23
2019-02-28T22:10:54.951Z,83.80
2019-02-28T22:13:21.843Z,84.03
2019-02-28T22:15:48.650Z,86.80
2019-02-28T22:18:15.439Z,82.97
2019-02-28T22:20:42.573Z,92.40
2019-02-28T22:23:09.430Z,85.07
2019-02-28T22:25:36.528Z,88.53
2019-02-28T22:28:03.696Z,90.43
2019-02-28T22:30:50.665Z,88.03
2019-02-28T22:33:26.618Z,84.53
2019-02-28T22:35:55.429Z,70.90
2019-02-28T22:38:22.301Z,83.40
2019-02-28T22:40:49.123Z,73.77
2019-02-28T22:43:16.005Z,78.30
2019-02-28T22:45:42.837Z,79.03
2019-02-28T22:48:09.959Z,81.60
2019-02-28T22:50:37.259Z,72.10
2019-02-28T22:53:04.165Z,77.53
2019-02-28T22:55:31.034Z,69.47
2019-02-28T22:57:57.889Z,81.67
2019-02-28T23:00:31.950Z,73.47
2019-02-28T23:02:59.003Z,80.13
2019-02-28T23:05:26.145Z,72.23
2019-02-28T23:07:53.355Z,74.67
2019-02-28T23:10:20.217Z,85.57
2019-02-28T23:12:47.081Z,74.20
2019-02-28T23:15:13.977Z,78.30
2019-02-28T23:17:40.820Z,74.30
2019-02-28T23:20:07.972Z,81.43
2019-02-28T23:22:35.220Z,88.97
2019-02-28T23:25:02.035Z,80.40
2019-02-28T23:27:29.171Z,75.20
2019-02-28T23:30:14.555Z,72.60
2019-02-28T23:32:43.864Z,72.83
2019-02-28T23:35:13.235Z,82.33
2019-02-28T23:37:40.121Z,82.50
2019-02-28T23:40:07.291Z,79.87
2019-02-28T23:42:34.268Z,78.47
2019-02-28T23:45:01.143Z,79.23
2019-02-28T23:47:28.205Z,89.63
2019-02-28T23:49:55.253Z,82.57
2019-02-28T23:52:22.088Z,79.73
2019-02-28T23:54:49.268Z,78.17
2019-02-28T23:57:16.178Z,83.60
2019-02-28T23:59:43.156Z,80.07
